KBWP

Harry Stern Airport

Wahpeton, North Dakota, USA
METAR KBWP 151830Z AUTO 30009KT 10SM CLR M18/M22 A3020 RMK AO1
Observed Flight Rules
Feb-15 @ 18:30 UTC (39 minutes ago) Visual Flight Rules
Wind Visibility Clouds
300° at 9 knots 10 miles
  • Clear skies
Temperatures Readings
Current -18°C / -0°F
Dewpoint -22°C / -8°F
Humidity 71%
Altimeter 30.2" Hg
Pressure 1022.72 hPa
Elevation 295
METAR KBWP 151830Z AUTO 30009KT 10SM CLR M18/M22 A3020 RMK AO1
Observed Flight Rules
Feb-15 @ 18:30 UTC
(39 minutes ago)
VFR
Wind Visibility
300° at 9 knots 10 miles
Clouds
  • Clear skies
Temperature Dewpoint
-18°C / -0°F -22°C / -8°F
Humidity Altimeter Pressure
71% 30.2" Hg 1022.72 hPa